createdAt,value
2022-09-30T04:00:25.756Z,7.40
2022-09-30T04:02:57.738Z,7.30
2022-09-30T04:05:25.971Z,7.30
2022-09-30T04:07:53.917Z,7.30
2022-09-30T04:10:21.842Z,7.40
2022-09-30T04:12:49.761Z,7.40
2022-09-30T04:15:17.714Z,7.30
2022-09-30T04:17:47.481Z,7.00
2022-09-30T04:20:15.806Z,7.20
2022-09-30T04:22:43.747Z,7.20
2022-09-30T04:25:11.836Z,7.30
2022-09-30T04:27:40.005Z,7.30
2022-09-30T04:30:08.920Z,6.60
2022-09-30T04:32:36.904Z,7.00
2022-09-30T04:35:07.183Z,7.10
2022-09-30T04:37:35.172Z,7.20
2022-09-30T04:40:03.454Z,7.30
2022-09-30T04:42:31.419Z,7.30
2022-09-30T04:44:59.364Z,7.30
2022-09-30T04:47:27.327Z,7.30
2022-09-30T04:49:55.897Z,7.30
2022-09-30T04:52:25.229Z,7.30
2022-09-30T04:54:54.068Z,7.40
2022-09-30T04:57:22.065Z,7.40
2022-09-30T04:59:50.690Z,7.30
2022-09-30T05:02:18.713Z,7.20
2022-09-30T05:04:46.694Z,7.20
2022-09-30T05:07:14.711Z,7.10
2022-09-30T05:09:44.163Z,7.10
2022-09-30T05:12:12.280Z,7.10
2022-09-30T05:14:40.329Z,6.70
2022-09-30T05:17:08.706Z,7.10
2022-09-30T05:19:36.650Z,7.00
2022-09-30T05:22:04.687Z,7.10
2022-09-30T05:24:32.626Z,6.10
2022-09-30T05:27:02.695Z,6.80
2022-09-30T05:29:31.046Z,7.00
2022-09-30T05:31:59.023Z,7.30
2022-09-30T05:34:27.415Z,7.20
2022-09-30T05:36:55.347Z,6.60
2022-09-30T05:39:23.365Z,6.50
2022-09-30T05:41:51.939Z,7.10
2022-09-30T05:44:21.453Z,7.10
2022-09-30T05:46:49.476Z,7.40
2022-09-30T05:49:18.017Z,7.90
2022-09-30T05:51:46.104Z,8.10
2022-09-30T05:54:14.300Z,8.30
2022-09-30T05:56:42.268Z,8.30
2022-09-30T05:59:10.211Z,8.30
2022-09-30T06:01:39.577Z,8.60
2022-09-30T06:04:07.563Z,8.40
2022-09-30T06:06:35.566Z,8.40
2022-09-30T06:09:03.519Z,8.80
2022-09-30T06:11:31.655Z,8.90
2022-09-30T06:14:00.684Z,9.20
2022-09-30T06:16:28.695Z,8.90
2022-09-30T06:18:59.087Z,9.30
2022-09-30T06:21:28.417Z,9.30
2022-09-30T06:23:56.429Z,9.60
2022-09-30T06:26:24.439Z,9.80
2022-09-30T06:28:53.441Z,9.80
2022-09-30T06:31:21.503Z,10.00
2022-09-30T06:33:53.028Z,10.00
2022-09-30T06:36:22.301Z,10.20
2022-09-30T06:38:54.474Z,10.30
2022-09-30T06:41:24.429Z,10.50
2022-09-30T06:44:00.589Z,10.60
2022-09-30T06:46:49.594Z,10.70
2022-09-30T06:49:21.774Z,10.70
2022-09-30T06:51:52.073Z,10.20
2022-09-30T06:54:20.576Z,10.10
2022-09-30T06:56:49.522Z,9.90
2022-09-30T06:59:17.866Z,10.10
2022-09-30T07:01:46.304Z,9.90
2022-09-30T07:04:14.953Z,10.00
2022-09-30T07:06:43.273Z,10.00
2022-09-30T07:09:13.772Z,10.30
2022-09-30T07:11:42.026Z,10.30
2022-09-30T07:14:13.340Z,10.40
2022-09-30T07:16:41.520Z,10.70
2022-09-30T07:19:10.150Z,10.60
2022-09-30T07:21:38.174Z,11.00
2022-09-30T07:24:06.407Z,11.50
2022-09-30T07:26:35.955Z,11.10
2022-09-30T07:29:04.030Z,11.30
2022-09-30T07:31:34.186Z,11.70
2022-09-30T07:34:06.948Z,12.00
2022-09-30T07:36:37.631Z,11.80
2022-09-30T07:39:09.329Z,12.00
2022-09-30T07:41:40.762Z,12.60
2022-09-30T07:44:14.168Z,12.50
2022-09-30T07:46:44.199Z,12.20
2022-09-30T07:49:21.047Z,12.50
2022-09-30T07:51:49.145Z,12.80
2022-09-30T07:54:21.045Z,12.80
2022-09-30T07:57:09.143Z,12.90
2022-09-30T07:59:40.636Z,12.80
2022-09-30T08:02:16.312Z,12.60
2022-09-30T08:04:45.215Z,12.60
2022-09-30T08:07:17.268Z,13.10
2022-09-30T08:09:45.586Z,13.10
2022-09-30T08:12:14.964Z,13.50
2022-09-30T08:14:44.579Z,13.70
2022-09-30T08:17:12.725Z,13.10
2022-09-30T08:19:43.941Z,13.80
2022-09-30T08:22:13.812Z,14.00
2022-09-30T08:24:41.817Z,14.30
2022-09-30T08:27:09.814Z,14.50
2022-09-30T08:29:56.109Z,14.20
2022-09-30T08:32:25.535Z,14.00
2022-09-30T08:34:53.513Z,13.80
2022-09-30T08:37:21.650Z,14.40
2022-09-30T08:39:49.649Z,14.00
2022-09-30T08:42:52.755Z,14.10
2022-09-30T08:45:38.236Z,14.90
2022-09-30T08:48:24.097Z,14.20
2022-09-30T08:51:09.104Z,14.80
2022-09-30T08:53:43.115Z,14.80
2022-09-30T08:56:21.680Z,14.50
2022-09-30T08:58:56.982Z,14.90
2022-09-30T09:01:33.513Z,15.50
2022-09-30T09:04:04.621Z,15.00
2022-09-30T09:06:43.341Z,14.90
2022-09-30T09:09:35.127Z,15.40
2022-09-30T09:12:22.525Z,15.40
2022-09-30T09:15:09.174Z,15.80
2022-09-30T09:18:24.092Z,15.90
2022-09-30T09:20:57.687Z,16.30
2022-09-30T09:23:28.136Z,16.50
2022-09-30T09:25:56.151Z,16.10
2022-09-30T09:28:36.869Z,16.40
2022-09-30T09:31:05.780Z,16.80
2022-09-30T09:33:40.365Z,17.10
2022-09-30T09:36:32.497Z,17.10
2022-09-30T09:39:22.295Z,16.90
2022-09-30T09:42:02.460Z,17.50
2022-09-30T09:44:40.224Z,17.40
2022-09-30T09:47:15.103Z,17.90
2022-09-30T09:49:46.486Z,17.90
2022-09-30T09:52:45.396Z,18.30
2022-09-30T09:55:14.672Z,18.30
2022-09-30T09:57:42.765Z,18.60
2022-09-30T10:00:31.562Z,18.10
2022-09-30T10:03:03.844Z,18.40
2022-09-30T10:05:39.796Z,19.20
2022-09-30T10:08:16.723Z,18.80
2022-09-30T10:10:51.360Z,19.30
2022-09-30T10:13:23.469Z,19.70
2022-09-30T10:15:56.472Z,19.10
2022-09-30T10:18:30.938Z,19.50
2022-09-30T10:21:06.434Z,19.90
2022-09-30T10:23:39.095Z,18.90
2022-09-30T10:26:20.146Z,19.70
2022-09-30T10:28:51.203Z,19.90
2022-09-30T10:31:26.999Z,20.40
2022-09-30T10:34:04.274Z,19.50
2022-09-30T10:36:36.813Z,20.00
2022-09-30T10:39:09.221Z,20.60
2022-09-30T10:41:39.610Z,20.80
2022-09-30T10:44:17.331Z,20.60
2022-09-30T10:46:48.493Z,21.60
2022-09-30T10:49:29.080Z,22.10
2022-09-30T10:52:00.494Z,21.90
2022-09-30T10:54:54.240Z,21.80
2022-09-30T10:57:26.217Z,22.00
2022-09-30T11:00:01.610Z,21.70
2022-09-30T11:02:40.248Z,22.70
2022-09-30T11:05:19.373Z,22.20
2022-09-30T11:07:55.946Z,23.30
2022-09-30T11:10:42.845Z,23.00
2022-09-30T11:13:20.727Z,23.70
2022-09-30T11:16:04.085Z,24.10
2022-09-30T11:18:42.680Z,24.20
2022-09-30T11:21:19.341Z,25.60
2022-09-30T11:23:55.257Z,24.20
2022-09-30T11:26:40.951Z,25.40
2022-09-30T11:29:39.164Z,25.70
2022-09-30T11:32:27.897Z,25.10
2022-09-30T11:35:13.553Z,23.50
2022-09-30T11:38:08.273Z,22.70
2022-09-30T11:40:47.933Z,21.70
2022-09-30T11:43:30.536Z,22.00
2022-09-30T11:46:26.642Z,24.90
2022-09-30T11:49:33.349Z,27.60
2022-09-30T11:52:17.261Z,26.30
2022-09-30T11:55:06.085Z,26.90
2022-09-30T11:57:46.606Z,27.30
2022-09-30T12:00:18.456Z,27.10
2022-09-30T12:02:51.147Z,24.80
2022-09-30T12:05:26.891Z,25.50
2022-09-30T12:08:04.570Z,25.40
2022-09-30T12:10:38.399Z,26.40
2022-09-30T12:13:15.137Z,26.20
2022-09-30T12:15:45.917Z,25.60
2022-09-30T12:18:18.462Z,25.20
2022-09-30T12:20:53.891Z,28.40
2022-09-30T12:23:29.312Z,31.20
2022-09-30T12:25:59.479Z,31.20
2022-09-30T12:28:53.601Z,28.80
2022-09-30T12:32:11.729Z,31.20
2022-09-30T12:35:02.019Z,31.10
2022-09-30T12:37:53.208Z,32.40
2022-09-30T12:40:56.890Z,33.60
2022-09-30T12:44:08.495Z,31.90
2022-09-30T12:47:09.205Z,34.20
2022-09-30T12:49:41.209Z,34.90
2022-09-30T12:52:16.609Z,33.40
2022-09-30T12:54:51.795Z,30.20
2022-09-30T12:57:26.662Z,30.00
2022-09-30T13:00:02.105Z,31.90
2022-09-30T13:02:37.084Z,35.00
2022-09-30T13:05:48.445Z,35.60
2022-09-30T13:08:46.165Z,36.20
2022-09-30T13:11:39.239Z,32.80
2022-09-30T13:14:36.248Z,32.60
2022-09-30T13:17:28.135Z,31.90
2022-09-30T13:19:57.390Z,33.10
2022-09-30T13:22:57.668Z,33.40
2022-09-30T13:25:25.829Z,32.90
2022-09-30T13:28:25.440Z,32.40
2022-09-30T13:31:16.028Z,30.90
2022-09-30T13:33:48.853Z,30.70
2022-09-30T13:36:30.164Z,31.20
2022-09-30T13:39:20.360Z,30.00
2022-09-30T13:42:02.584Z,31.60
2022-09-30T13:44:45.296Z,34.00
2022-09-30T13:47:24.853Z,31.90
2022-09-30T13:50:03.667Z,31.40
2022-09-30T13:52:38.139Z,34.30
2022-09-30T13:55:18.249Z,34.00
2022-09-30T13:58:04.382Z,33.20
2022-09-30T14:00:51.070Z,34.50
2022-09-30T14:03:53.385Z,34.40
2022-09-30T14:06:38.334Z,34.30
2022-09-30T14:09:33.500Z,32.90
2022-09-30T14:12:23.107Z,37.90
2022-09-30T14:15:38.615Z,33.70
2022-09-30T14:18:55.900Z,32.00
2022-09-30T14:21:36.732Z,29.30
2022-09-30T14:24:16.077Z,27.50
2022-09-30T14:27:29.465Z,25.90
2022-09-30T14:30:07.566Z,22.70
2022-09-30T14:32:46.591Z,22.10
2022-09-30T14:35:20.857Z,23.40
2022-09-30T14:37:55.491Z,22.30
2022-09-30T14:40:29.287Z,22.40
2022-09-30T14:43:02.704Z,21.30
2022-09-30T14:45:35.074Z,20.60
2022-09-30T14:48:09.294Z,20.10
2022-09-30T14:50:46.901Z,20.10
2022-09-30T14:53:29.071Z,20.20
2022-09-30T14:55:57.145Z,20.40
2022-09-30T14:58:30.335Z,19.60
2022-09-30T15:01:04.765Z,21.00
2022-09-30T15:03:36.189Z,20.60
2022-09-30T15:06:06.245Z,20.70
2022-09-30T15:08:36.388Z,20.10
2022-09-30T15:11:04.541Z,19.50
2022-09-30T15:13:34.284Z,19.30
2022-09-30T15:16:03.023Z,19.20
2022-09-30T15:18:36.360Z,19.10
2022-09-30T15:21:13.192Z,19.40
2022-09-30T15:23:47.265Z,19.10
2022-09-30T15:26:16.838Z,19.20
2022-09-30T15:28:44.777Z,19.70
2022-09-30T15:31:25.304Z,20.00
2022-09-30T15:34:08.633Z,20.50
2022-09-30T15:36:38.228Z,23.00
2022-09-30T15:39:22.559Z,25.80
2022-09-30T15:41:52.884Z,25.90
2022-09-30T15:44:38.738Z,27.80
2022-09-30T15:47:09.936Z,27.00
2022-09-30T15:49:49.710Z,28.50
2022-09-30T15:52:37.681Z,29.40
2022-09-30T15:55:43.045Z,28.60
2022-09-30T15:58:37.772Z,30.40
2022-09-30T16:01:21.603Z,28.60
2022-09-30T16:03:55.311Z,28.20
2022-09-30T16:06:31.322Z,28.20
2022-09-30T16:09:03.227Z,28.70
2022-09-30T16:11:37.557Z,29.30
2022-09-30T16:14:11.190Z,29.80
2022-09-30T16:16:40.168Z,29.20
2022-09-30T16:19:18.284Z,26.10
2022-09-30T16:21:50.782Z,25.10
2022-09-30T16:24:48.682Z,22.60
2022-09-30T16:27:33.052Z,22.70
2022-09-30T16:30:01.842Z,22.30
2022-09-30T16:32:34.575Z,21.10
2022-09-30T16:35:02.595Z,20.90
2022-09-30T16:37:30.928Z,20.40
2022-09-30T16:40:16.368Z,20.00
2022-09-30T16:42:45.725Z,19.80
2022-09-30T16:45:14.995Z,19.50
2022-09-30T16:47:44.042Z,19.10
2022-09-30T16:50:32.212Z,18.80
2022-09-30T16:53:00.285Z,17.70
2022-09-30T16:55:28.728Z,18.00
2022-09-30T16:57:59.432Z,17.40
2022-09-30T17:00:29.557Z,17.00
2022-09-30T17:02:57.794Z,16.80
2022-09-30T17:05:27.832Z,16.60
2022-09-30T17:07:58.740Z,16.60
2022-09-30T17:10:30.162Z,16.40
2022-09-30T17:13:01.356Z,15.80
2022-09-30T17:15:32.812Z,16.10
2022-09-30T17:18:01.326Z,15.70
2022-09-30T17:20:29.501Z,15.50
2022-09-30T17:22:57.556Z,15.50
2022-09-30T17:25:25.645Z,15.60
2022-09-30T17:27:54.195Z,15.70
2022-09-30T17:30:23.835Z,15.80
2022-09-30T17:32:54.375Z,15.60
2022-09-30T17:35:22.570Z,15.20
2022-09-30T17:37:50.575Z,14.60
2022-09-30T17:40:36.247Z,14.20
2022-09-30T17:43:11.343Z,14.30
2022-09-30T17:45:43.979Z,14.50
2022-09-30T17:48:14.009Z,14.60
2022-09-30T17:50:45.982Z,14.50
2022-09-30T17:53:16.927Z,14.50
2022-09-30T17:55:47.663Z,14.30
2022-09-30T17:58:17.966Z,14.20
2022-09-30T18:00:48.117Z,14.20
2022-09-30T18:03:16.097Z,13.90
2022-09-30T18:05:45.492Z,13.80
2022-09-30T18:08:13.649Z,14.00
2022-09-30T18:10:41.637Z,14.00
2022-09-30T18:13:11.413Z,14.00
2022-09-30T18:15:39.911Z,13.80
2022-09-30T18:18:09.238Z,13.90
2022-09-30T18:20:37.235Z,13.60
2022-09-30T18:23:05.198Z,13.60
2022-09-30T18:25:33.195Z,13.40
2022-09-30T18:28:01.592Z,13.70
2022-09-30T18:30:29.610Z,14.00
2022-09-30T18:32:59.017Z,13.70
2022-09-30T18:35:30.098Z,13.70
2022-09-30T18:37:58.052Z,13.40
2022-09-30T18:40:28.128Z,13.20
2022-09-30T18:42:58.538Z,13.00
2022-09-30T18:45:27.274Z,13.10
2022-09-30T18:47:57.852Z,12.90
2022-09-30T18:50:29.653Z,13.00
2022-09-30T18:52:58.808Z,13.00
2022-09-30T18:55:27.948Z,12.80
2022-09-30T18:57:57.157Z,13.00
2022-09-30T19:00:25.718Z,12.80
2022-09-30T19:02:53.892Z,13.00
2022-09-30T19:05:22.255Z,12.40
2022-09-30T19:07:52.966Z,12.50
2022-09-30T19:10:21.438Z,12.40
2022-09-30T19:12:49.540Z,12.60
2022-09-30T19:15:17.678Z,12.20
2022-09-30T19:17:46.448Z,12.40
2022-09-30T19:20:16.198Z,12.40
2022-09-30T19:22:44.195Z,12.20
2022-09-30T19:25:14.036Z,12.70
2022-09-30T19:27:43.818Z,12.70
2022-09-30T19:30:14.991Z,12.80
2022-09-30T19:32:43.031Z,12.40
2022-09-30T19:35:14.163Z,12.50
2022-09-30T19:37:56.437Z,12.70
2022-09-30T19:43:05.265Z,12.50
2022-09-30T19:45:33.603Z,12.60
2022-09-30T19:48:03.023Z,12.40
2022-09-30T19:50:30.993Z,12.50
2022-09-30T19:52:59.748Z,12.60
2022-09-30T19:55:27.865Z,12.30
2022-09-30T19:57:57.215Z,12.30
2022-09-30T20:00:25.223Z,12.00
2022-09-30T20:02:53.200Z,12.20
2022-09-30T20:05:22.465Z,11.60
2022-09-30T20:07:51.242Z,11.40
2022-09-30T20:10:19.780Z,11.40
2022-09-30T20:12:47.872Z,12.00
2022-09-30T20:15:34.917Z,11.70
2022-09-30T20:18:02.877Z,11.10
2022-09-30T20:20:38.291Z,11.00
2022-09-30T20:23:06.286Z,11.10
2022-09-30T20:25:36.191Z,11.10
2022-09-30T20:28:05.091Z,11.40
2022-09-30T20:30:39.864Z,11.60
2022-09-30T20:33:07.886Z,11.50
2022-09-30T20:35:36.734Z,11.00
2022-09-30T20:38:05.257Z,11.00
2022-09-30T20:40:34.656Z,11.00
2022-09-30T20:43:04.028Z,10.60
2022-09-30T20:45:32.191Z,11.20
2022-09-30T20:48:02.329Z,11.40
2022-09-30T20:50:36.548Z,10.90
2022-09-30T20:53:08.811Z,10.80
2022-09-30T20:55:39.517Z,10.70
2022-09-30T20:58:09.522Z,10.80
